createdAt,value
2023-02-14T00:04:05.952Z,101560.65
2023-02-14T00:09:15.806Z,101568.04
2023-02-14T00:14:39.907Z,101561.31
2023-02-14T00:19:46.073Z,101557.56
2023-02-14T00:24:52.019Z,101556.29
2023-02-14T00:29:59.753Z,101555.77
2023-02-14T00:35:06.108Z,101558.23
2023-02-14T00:40:10.735Z,101563.61
2023-02-14T00:45:14.720Z,101575.55
2023-02-14T00:50:19.354Z,101569.90
2023-02-14T00:55:23.987Z,101568.45
2023-02-14T01:00:29.179Z,101566.53
2023-02-14T01:05:34.116Z,101567.50
2023-02-14T01:10:39.638Z,101563.89
2023-02-14T01:15:47.707Z,101566.30
2023-02-14T01:20:51.476Z,101568.50
2023-02-14T01:25:55.690Z,101564.30
2023-02-14T01:31:11.876Z,101560.38
2023-02-14T01:36:24.240Z,101558.20
2023-02-14T01:41:31.298Z,101554.27
2023-02-14T01:46:37.732Z,101553.57
2023-02-14T01:51:55.718Z,101549.92
2023-02-14T01:57:06.894Z,101539.73
2023-02-14T02:02:12.444Z,101536.83
2023-02-14T02:07:25.573Z,101536.54
2023-02-14T02:12:30.994Z,101537.71
2023-02-14T02:17:54.606Z,101545.52
2023-02-14T02:23:11.644Z,101540.00
2023-02-14T02:28:43.040Z,101538.77
2023-02-14T02:34:13.312Z,101540.48
2023-02-14T02:39:24.508Z,101534.90
2023-02-14T02:44:43.625Z,101538.18
2023-02-14T02:50:13.001Z,101544.73
2023-02-14T02:56:01.447Z,101546.55
2023-02-14T03:01:14.258Z,101548.06
2023-02-14T03:06:18.805Z,101547.12
2023-02-14T03:11:25.394Z,101548.13
2023-02-14T03:16:48.363Z,101553.02
2023-02-14T03:22:18.605Z,101553.91
2023-02-14T03:27:34.612Z,101559.67
2023-02-14T03:32:57.275Z,101556.88
2023-02-14T03:38:11.140Z,101565.90
2023-02-14T03:43:35.048Z,101567.69
2023-02-14T03:48:41.583Z,101574.23
2023-02-14T03:53:48.041Z,101581.07
2023-02-14T03:58:56.301Z,101580.97
2023-02-14T04:04:01.530Z,101577.60
2023-02-14T04:09:06.377Z,101578.81
2023-02-14T04:14:09.798Z,101593.38
2023-02-14T04:19:26.974Z,101581.36
2023-02-14T04:24:31.850Z,101584.98
2023-02-14T04:29:41.853Z,101580.91
2023-02-14T04:34:47.288Z,101585.14
2023-02-14T04:39:52.156Z,101581.92
2023-02-14T04:44:56.965Z,101588.10
2023-02-14T04:50:02.188Z,101587.45
2023-02-14T04:55:08.943Z,101590.48
2023-02-14T05:00:14.566Z,101591.63
2023-02-14T05:05:19.048Z,101591.46
2023-02-14T05:10:22.469Z,101587.25
2023-02-14T05:15:27.789Z,101582.84
2023-02-14T05:20:33.147Z,101586.69
2023-02-14T05:25:38.595Z,101586.83
2023-02-14T05:30:43.680Z,101587.27
2023-02-14T05:35:48.361Z,101587.40
2023-02-14T05:40:53.082Z,101593.45
2023-02-14T05:45:57.967Z,101596.67
2023-02-14T05:51:10.225Z,101605.49
2023-02-14T05:56:14.072Z,101614.35
2023-02-14T06:01:17.510Z,101615.87
2023-02-14T06:06:21.135Z,101620.70
2023-02-14T06:11:25.603Z,101628.05
2023-02-14T06:16:30.265Z,101630.47
2023-02-14T06:21:34.940Z,101623.67
2023-02-14T06:26:39.279Z,101636.40
2023-02-14T06:31:44.880Z,101634.67
2023-02-14T06:36:50.335Z,101637.77
2023-02-14T06:41:55.119Z,101642.04
2023-02-14T06:47:01.330Z,101643.35
2023-02-14T06:52:06.499Z,101643.20
2023-02-14T06:57:10.821Z,101643.56
2023-02-14T07:02:16.511Z,101655.02
2023-02-14T07:07:21.260Z,101656.91
2023-02-14T07:12:25.983Z,101664.29
2023-02-14T07:17:30.002Z,101668.76
2023-02-14T07:22:34.212Z,101671.55
2023-02-14T07:27:41.068Z,101676.83
2023-02-14T07:32:45.787Z,101677.05
2023-02-14T07:37:53.947Z,101684.60
2023-02-14T07:42:58.802Z,101684.73
2023-02-14T07:48:02.757Z,101685.59
2023-02-14T07:53:06.419Z,101686.14
2023-02-14T07:58:10.466Z,101686.81
2023-02-14T08:03:14.714Z,101679.38
2023-02-14T08:08:18.863Z,101684.49
2023-02-14T08:13:22.885Z,101689.71
2023-02-14T08:18:29.163Z,101687.35
2023-02-14T08:23:34.321Z,101691.98
2023-02-14T08:28:38.300Z,101692.05
2023-02-14T08:33:45.186Z,101700.86
2023-02-14T08:38:50.408Z,101700.84
2023-02-14T08:43:54.742Z,101699.54
2023-02-14T08:48:59.354Z,101704.02
2023-02-14T08:54:04.241Z,101701.73
2023-02-14T08:59:09.034Z,101711.89
2023-02-14T09:04:13.600Z,101712.86
2023-02-14T09:09:22.215Z,101720.05
2023-02-14T09:14:25.989Z,101723.90
2023-02-14T09:19:30.947Z,101733.04
2023-02-14T09:24:41.188Z,101731.80
2023-02-14T09:29:46.596Z,101730.80
2023-02-14T09:34:55.416Z,101732.39
2023-02-14T09:40:00.778Z,101745.60
2023-02-14T09:45:13.206Z,101746.02
2023-02-14T09:50:31.664Z,101744.44
2023-02-14T09:55:48.076Z,101735.94
2023-02-14T10:00:56.177Z,101745.11
2023-02-14T10:06:11.729Z,101746.45
2023-02-14T10:11:21.050Z,101745.28
2023-02-14T10:16:35.213Z,101741.30
2023-02-14T10:21:50.246Z,101738.05
2023-02-14T10:27:03.292Z,101729.84
2023-02-14T10:32:20.546Z,101725.54
2023-02-14T10:38:18.886Z,101722.98
2023-02-14T10:43:50.330Z,101723.48
2023-02-14T10:49:27.149Z,101726.66
2023-02-14T10:54:42.332Z,101727.14
2023-02-14T11:00:01.076Z,101711.54
2023-02-14T11:05:08.513Z,101720.06
2023-02-14T11:10:15.752Z,101709.75
2023-02-14T11:15:28.620Z,101720.95
2023-02-14T11:20:33.387Z,101706.84
2023-02-14T11:25:38.102Z,101716.08
2023-02-14T11:30:46.758Z,101711.25
2023-02-14T11:35:53.122Z,101703.11
2023-02-14T11:40:59.593Z,101704.14
2023-02-14T11:46:16.725Z,101699.02
2023-02-14T11:51:29.586Z,101697.11
2023-02-14T11:56:57.624Z,101690.27
2023-02-14T12:02:25.032Z,101685.23
2023-02-14T12:07:36.941Z,101680.73
2023-02-14T12:12:51.779Z,101688.05
2023-02-14T12:18:24.291Z,101684.60
2023-02-14T12:23:43.144Z,101682.36
2023-02-14T12:28:59.343Z,101676.21
2023-02-14T12:34:05.755Z,101677.88
2023-02-14T12:39:23.066Z,101674.23
2023-02-14T12:45:07.221Z,101676.44
2023-02-14T12:50:52.281Z,101668.64
2023-02-14T12:56:36.005Z,101666.27
2023-02-14T13:02:02.684Z,101667.38
2023-02-14T13:07:28.888Z,101666.68
2023-02-14T13:12:40.725Z,101664.73
2023-02-14T13:17:58.334Z,101656.98
2023-02-14T13:23:07.019Z,101659.50
2023-02-14T13:28:17.591Z,101657.98
2023-02-14T13:33:39.711Z,101654.23
2023-02-14T13:38:56.279Z,101661.34
2023-02-14T13:44:02.957Z,101657.92
2023-02-14T13:49:37.568Z,101659.06
2023-02-14T13:54:51.196Z,101655.04
2023-02-14T14:00:17.166Z,101659.64
2023-02-14T14:05:51.079Z,101663.45
2023-02-14T14:11:01.221Z,101664.77
2023-02-14T14:16:25.389Z,101660.92
2023-02-14T14:21:36.020Z,101657.18
2023-02-14T14:26:54.153Z,101656.36
2023-02-14T14:31:59.429Z,101656.36
2023-02-14T14:37:08.198Z,101656.02
2023-02-14T14:42:17.920Z,101656.62
2023-02-14T14:47:29.467Z,101658.48
2023-02-14T14:52:39.938Z,101650.45
2023-02-14T14:57:53.711Z,101646.63
2023-02-14T15:03:08.949Z,101644.58
2023-02-14T15:08:16.249Z,101641.80
2023-02-14T15:13:55.417Z,101644.54
2023-02-14T15:19:13.148Z,101645.23
2023-02-14T15:24:20.004Z,101646.42
2023-02-14T15:29:32.792Z,101650.11
2023-02-14T15:34:38.532Z,101648.92
2023-02-14T15:39:47.505Z,101653.91
2023-02-14T15:44:52.481Z,101656.23
2023-02-14T15:49:56.476Z,101661.14
2023-02-14T15:55:00.364Z,101663.79
2023-02-14T16:00:17.252Z,101670.02
2023-02-14T16:05:22.099Z,101671.53
2023-02-14T16:10:29.397Z,101670.27
2023-02-14T16:15:36.666Z,101666.21
2023-02-14T16:20:51.665Z,101668.32
2023-02-14T16:26:00.367Z,101663.55
2023-02-14T16:31:11.316Z,101664.98
2023-02-14T16:36:27.698Z,101667.67
2023-02-14T16:41:33.867Z,101665.84
2023-02-14T16:46:38.092Z,101671.95
2023-02-14T16:51:45.766Z,101673.81
2023-02-14T16:56:58.622Z,101677.88
2023-02-14T17:02:02.754Z,101680.86
2023-02-14T17:07:07.445Z,101685.02
2023-02-14T17:12:16.902Z,101685.50
2023-02-14T17:17:21.307Z,101691.23
2023-02-14T17:22:25.052Z,101689.23
2023-02-14T17:27:29.816Z,101685.63
2023-02-14T17:32:35.765Z,101689.14
2023-02-14T17:37:40.817Z,101688.15
2023-02-14T17:42:46.339Z,101686.90
2023-02-14T17:47:50.279Z,101684.89
2023-02-14T17:53:03.455Z,101680.05
2023-02-14T17:58:19.195Z,101683.05
2023-02-14T18:03:26.176Z,101686.84
2023-02-14T18:08:32.163Z,101688.77
2023-02-14T18:13:36.401Z,101685.14
2023-02-14T18:18:40.673Z,101688.53
2023-02-14T18:23:45.407Z,101689.14
2023-02-14T18:28:52.297Z,101691.06
2023-02-14T18:33:57.314Z,101689.82
2023-02-14T18:39:01.458Z,101685.64
2023-02-14T18:44:05.811Z,101686.78
2023-02-14T18:49:09.791Z,101682.09
2023-02-14T18:54:14.941Z,101683.10
2023-02-14T18:59:18.464Z,101679.21
2023-02-14T19:04:22.044Z,101673.53
2023-02-14T19:09:27.938Z,101671.94
2023-02-14T19:14:31.318Z,101663.09
2023-02-14T19:19:35.428Z,101660.91
2023-02-14T19:24:39.934Z,101653.90
2023-02-14T19:29:44.914Z,101654.84
2023-02-14T19:34:49.074Z,101653.72
2023-02-14T19:39:52.746Z,101655.93
2023-02-14T19:44:57.534Z,101654.11
2023-02-14T19:50:01.785Z,101656.49
2023-02-14T19:55:08.120Z,101658.30
2023-02-14T20:00:14.626Z,101653.67
2023-02-14T20:05:20.798Z,101659.95
2023-02-14T20:10:27.286Z,101658.71
2023-02-14T20:15:34.044Z,101655.55
2023-02-14T20:20:58.463Z,101649.77
2023-02-14T20:26:03.775Z,101651.58
2023-02-14T20:31:11.549Z,101651.68
2023-02-14T20:36:16.255Z,101647.80
2023-02-14T20:41:19.792Z,101639.56
2023-02-14T20:46:23.630Z,101641.53
2023-02-14T20:51:29.017Z,101643.02
2023-02-14T20:56:34.003Z,101650.16
2023-02-14T21:01:38.988Z,101652.02
2023-02-14T21:06:43.098Z,101658.49
2023-02-14T21:11:50.741Z,101655.85
2023-02-14T21:16:55.721Z,101647.37
2023-02-14T21:22:01.604Z,101638.62
2023-02-14T21:27:06.474Z,101629.83
2023-02-14T21:32:11.680Z,101622.97
2023-02-14T21:37:16.293Z,101620.16
2023-02-14T21:42:22.708Z,101620.11
2023-02-14T21:47:29.492Z,101618.90
2023-02-14T21:52:35.510Z,101622.31
2023-02-14T21:57:40.036Z,101621.98
2023-02-14T22:02:44.807Z,101622.30
2023-02-14T22:07:49.780Z,101620.88
2023-02-14T22:12:56.661Z,101619.15
2023-02-14T22:18:01.370Z,101622.70
2023-02-14T22:23:05.650Z,101620.23
2023-02-14T22:28:12.431Z,101617.12
2023-02-14T22:33:17.095Z,101614.83
2023-02-14T22:38:24.706Z,101617.20
2023-02-14T22:43:31.059Z,101615.06
2023-02-14T22:48:38.276Z,101618.38
2023-02-14T22:53:44.474Z,101613.45
2023-02-14T22:58:54.161Z,101616.14
2023-02-14T23:04:00.477Z,101619.80
2023-02-14T23:09:08.071Z,101614.65
2023-02-14T23:14:33.570Z,101614.66
2023-02-14T23:19:58.446Z,101607.92
2023-02-14T23:25:06.721Z,101600.95
2023-02-14T23:30:16.800Z,101599.70
2023-02-14T23:35:22.222Z,101597.12
2023-02-14T23:40:28.542Z,101590.14
2023-02-14T23:45:36.986Z,101583.93
2023-02-14T23:50:43.323Z,101583.80
2023-02-14T23:55:49.075Z,101581.27
